createdAt,value
2017-11-28T05:00:40.339Z,997.47
2017-11-28T05:01:05.794Z,997.5
2017-11-28T05:01:31.290Z,997.47
2017-11-28T05:01:56.786Z,997.48
2017-11-28T05:02:22.241Z,997.42
2017-11-28T05:02:47.726Z,997.42
2017-11-28T05:03:13.219Z,997.43
2017-11-28T05:03:38.721Z,997.39
2017-11-28T05:04:04.228Z,997.4
2017-11-28T05:04:29.725Z,997.4
2017-11-28T05:04:55.189Z,997.41
2017-11-28T05:05:20.711Z,997.39
2017-11-28T05:05:46.159Z,997.36
2017-11-28T05:06:11.681Z,997.33
2017-11-28T05:06:37.202Z,997.3
2017-11-28T05:07:02.692Z,997.35
2017-11-28T05:07:28.146Z,997.36
2017-11-28T05:07:53.647Z,997.35
2017-11-28T05:08:19.124Z,997.31
2017-11-28T05:08:44.578Z,997.25
2017-11-28T05:09:10.089Z,997.26
2017-11-28T05:09:35.571Z,997.3
2017-11-28T05:10:01.070Z,997.32
2017-11-28T05:10:26.554Z,997.32
2017-11-28T05:10:52.043Z,997.33
2017-11-28T05:11:17.530Z,997.32
2017-11-28T05:11:43.007Z,997.29
2017-11-28T05:12:08.454Z,997.31
2017-11-28T05:12:33.938Z,997.32
2017-11-28T05:12:59.418Z,997.29
2017-11-28T05:13:24.931Z,997.28
2017-11-28T05:13:50.446Z,997.28
2017-11-28T05:14:15.961Z,997.31
2017-11-28T05:14:41.433Z,997.34
2017-11-28T05:15:06.929Z,997.33
2017-11-28T05:15:32.371Z,997.33
2017-11-28T05:15:57.854Z,997.33
2017-11-28T05:16:23.348Z,997.33
2017-11-28T05:16:48.873Z,997.3
2017-11-28T05:17:14.335Z,997.35
2017-11-28T05:17:39.838Z,997.36
2017-11-28T05:18:05.315Z,997.35
2017-11-28T05:18:30.789Z,997.34
2017-11-28T05:18:56.247Z,997.33
2017-11-28T05:19:21.747Z,997.37
2017-11-28T05:19:47.165Z,997.39
2017-11-28T05:20:12.684Z,997.34
2017-11-28T05:20:38.173Z,997.37
2017-11-28T05:21:03.678Z,997.41
2017-11-28T05:21:29.158Z,997.35
2017-11-28T05:21:54.647Z,997.36
2017-11-28T05:22:20.154Z,997.34
2017-11-28T05:22:45.657Z,997.35
2017-11-28T05:23:11.164Z,997.29
2017-11-28T05:23:36.768Z,997.28
2017-11-28T05:24:02.208Z,997.36
2017-11-28T05:24:27.720Z,997.38
2017-11-28T05:24:53.226Z,997.35
2017-11-28T05:25:18.694Z,997.34
2017-11-28T05:25:44.197Z,997.35
2017-11-28T05:26:09.684Z,997.36
2017-11-28T05:26:35.142Z,997.34
2017-11-28T05:27:00.627Z,997.33
2017-11-28T05:27:26.251Z,997.34
2017-11-28T05:27:51.778Z,997.29
2017-11-28T05:28:17.232Z,997.32
2017-11-28T05:28:42.755Z,997.31
2017-11-28T05:29:08.357Z,997.25
2017-11-28T05:29:33.991Z,997.3
2017-11-28T05:29:59.473Z,997.35
2017-11-28T05:30:25.006Z,997.32
2017-11-28T05:30:50.435Z,997.36
2017-11-28T05:31:15.932Z,997.34
2017-11-28T05:31:41.414Z,997.3
2017-11-28T05:32:06.947Z,997.28
2017-11-28T05:32:32.460Z,997.31
2017-11-28T05:32:57.977Z,997.38
2017-11-28T05:33:23.451Z,997.36
2017-11-28T05:33:48.931Z,997.3
2017-11-28T05:34:14.442Z,997.35
2017-11-28T05:34:39.926Z,997.31
2017-11-28T05:35:05.433Z,997.39
2017-11-28T05:35:30.936Z,997.39
2017-11-28T05:35:56.378Z,997.41
2017-11-28T05:36:21.885Z,997.39
2017-11-28T05:36:47.370Z,997.44
2017-11-28T05:37:56.090Z,997.42
2017-11-28T05:38:21.576Z,997.42
2017-11-28T05:38:47.041Z,997.41
2017-11-28T05:39:12.524Z,997.44
2017-11-28T05:39:38.125Z,997.41
2017-11-28T05:40:03.607Z,997.47
2017-11-28T05:40:29.071Z,997.46
2017-11-28T05:40:54.588Z,997.51
2017-11-28T05:41:20.128Z,997.49
2017-11-28T05:41:45.673Z,997.5
2017-11-28T05:42:11.142Z,997.53
2017-11-28T05:42:36.640Z,997.51
2017-11-28T05:43:02.138Z,997.51
2017-11-28T05:43:27.635Z,997.51
2017-11-28T05:43:53.140Z,997.51
2017-11-28T05:44:18.611Z,997.46
2017-11-28T05:44:44.102Z,997.53
2017-11-28T05:45:09.886Z,997.54
2017-11-28T05:45:35.359Z,997.53
2017-11-28T05:46:00.860Z,997.59
2017-11-28T05:46:26.366Z,997.58
2017-11-28T05:46:51.850Z,997.56
2017-11-28T05:47:17.325Z,997.6
2017-11-28T05:48:20.967Z,997.56
2017-11-28T05:48:46.466Z,997.58
2017-11-28T05:49:11.941Z,997.53
2017-11-28T05:49:37.411Z,997.54
2017-11-28T05:50:02.945Z,997.59
2017-11-28T05:50:28.395Z,997.54
2017-11-28T05:50:53.893Z,997.53
2017-11-28T05:51:19.385Z,997.55
2017-11-28T05:51:44.880Z,997.57
2017-11-28T05:52:10.359Z,997.54
2017-11-28T05:52:35.861Z,997.59
2017-11-28T05:53:01.365Z,997.56
2017-11-28T05:53:26.880Z,997.55
2017-11-28T05:53:52.386Z,997.55
2017-11-28T05:54:17.892Z,997.57
2017-11-28T05:54:43.363Z,997.55
2017-11-28T05:55:08.836Z,997.57
2017-11-28T05:55:34.330Z,997.51
2017-11-28T05:55:59.795Z,997.56
2017-11-28T05:56:25.281Z,997.56
2017-11-28T05:56:50.751Z,997.57
2017-11-28T05:57:16.192Z,997.55
2017-11-28T05:57:41.691Z,997.56
2017-11-28T05:58:07.191Z,997.56
2017-11-28T05:58:32.690Z,997.52
2017-11-28T05:58:58.136Z,997.53
2017-11-28T05:59:23.622Z,997.54
2017-11-28T05:59:49.100Z,997.54
2017-11-28T06:00:14.652Z,997.54
2017-11-28T06:00:40.136Z,997.56
2017-11-28T06:01:05.631Z,997.58
2017-11-28T06:01:31.085Z,997.53
2017-11-28T06:01:56.558Z,997.53
2017-11-28T06:02:22.017Z,997.57
2017-11-28T06:02:47.483Z,997.53
2017-11-28T06:03:12.950Z,997.53
2017-11-28T06:03:38.466Z,997.57
2017-11-28T06:04:03.951Z,997.55
2017-11-28T06:04:29.396Z,997.54
2017-11-28T06:04:54.879Z,997.48
2017-11-28T06:05:20.383Z,997.52
2017-11-28T06:05:45.882Z,997.55
2017-11-28T06:06:11.389Z,997.5
2017-11-28T06:06:36.864Z,997.52
2017-11-28T06:07:02.356Z,997.52
2017-11-28T06:07:27.814Z,997.49
2017-11-28T06:07:53.272Z,997.47
2017-11-28T06:08:18.733Z,997.51
2017-11-28T06:08:44.220Z,997.51
2017-11-28T06:09:09.745Z,997.49
2017-11-28T06:09:35.214Z,997.53
2017-11-28T06:10:00.734Z,997.46
2017-11-28T06:10:26.206Z,997.52
2017-11-28T06:10:51.701Z,997.48
2017-11-28T06:11:17.227Z,997.52
2017-11-28T06:11:42.739Z,997.47
2017-11-28T06:12:08.246Z,997.5
2017-11-28T06:12:33.734Z,997.53
2017-11-28T06:12:59.198Z,997.5
2017-11-28T06:13:24.707Z,997.5
2017-11-28T06:13:50.238Z,997.46
2017-11-28T06:14:15.725Z,997.47
2017-11-28T06:14:41.159Z,997.49
2017-11-28T06:15:06.629Z,997.47
2017-11-28T06:15:32.133Z,997.46
2017-11-28T06:15:57.617Z,997.51
2017-11-28T06:16:23.106Z,997.51
2017-11-28T06:16:48.605Z,997.48
2017-11-28T06:17:14.094Z,997.57
2017-11-28T06:17:39.573Z,997.51
2017-11-28T06:18:05.077Z,997.52
2017-11-28T06:18:30.540Z,997.51
2017-11-28T06:18:56.083Z,997.52
2017-11-28T06:19:21.561Z,997.52
2017-11-28T06:19:47.053Z,997.52
2017-11-28T06:20:12.573Z,997.5
2017-11-28T06:20:38.052Z,997.51
2017-11-28T06:21:03.589Z,997.55
2017-11-28T06:21:29.069Z,997.59
2017-11-28T06:21:54.536Z,997.55
2017-11-28T06:22:20.024Z,997.53
2017-11-28T06:22:45.532Z,997.61
2017-11-28T06:23:11.080Z,997.52
2017-11-28T06:23:36.524Z,997.62
2017-11-28T06:24:02.021Z,997.52
2017-11-28T06:24:27.532Z,997.6
2017-11-28T06:24:53.030Z,997.61
2017-11-28T06:25:18.515Z,997.63
2017-11-28T06:25:44.019Z,997.65
2017-11-28T06:26:09.505Z,997.69
2017-11-28T06:26:34.979Z,997.67
2017-11-28T06:27:00.467Z,997.64
2017-11-28T06:27:25.953Z,997.63
2017-11-28T06:27:51.471Z,997.65
2017-11-28T06:28:16.957Z,997.68
2017-11-28T06:28:42.462Z,997.7
2017-11-28T06:29:07.974Z,997.67
2017-11-28T06:29:33.457Z,997.72
2017-11-28T06:29:58.924Z,997.73
2017-11-28T06:30:24.446Z,997.75
2017-11-28T06:30:49.917Z,997.71
2017-11-28T06:31:15.382Z,997.7
2017-11-28T06:31:40.846Z,997.75
2017-11-28T06:32:06.338Z,997.75
2017-11-28T06:32:31.804Z,997.78
2017-11-28T06:32:57.279Z,997.76
2017-11-28T06:33:22.735Z,997.79
2017-11-28T06:34:41.651Z,997.81
2017-11-28T06:35:07.148Z,997.77
2017-11-28T06:35:32.613Z,997.82
2017-11-28T06:35:58.080Z,997.81
2017-11-28T06:36:23.532Z,997.8
2017-11-28T06:37:22.030Z,997.85
2017-11-28T06:37:47.513Z,997.81
2017-11-28T06:38:12.983Z,997.85
2017-11-28T06:38:38.436Z,997.85
2017-11-28T06:39:03.903Z,997.84
2017-11-28T06:39:29.423Z,997.83
2017-11-28T06:39:54.930Z,997.91
2017-11-28T06:40:20.446Z,997.82
2017-11-28T06:40:45.914Z,997.84
2017-11-28T06:41:11.435Z,997.82
2017-11-28T06:41:36.880Z,997.79
2017-11-28T06:42:02.362Z,997.8
2017-11-28T06:42:27.873Z,997.77
2017-11-28T06:42:53.393Z,997.8
2017-11-28T06:43:18.821Z,997.79
2017-11-28T06:43:44.283Z,997.76
2017-11-28T06:44:09.784Z,997.77
2017-11-28T06:44:35.221Z,997.78
2017-11-28T06:45:00.703Z,997.79
2017-11-28T06:45:26.195Z,997.8
2017-11-28T06:45:51.683Z,997.73
2017-11-28T06:46:17.181Z,997.77
2017-11-28T06:46:42.663Z,997.72
2017-11-28T06:47:08.104Z,997.73
2017-11-28T06:47:33.603Z,997.77
2017-11-28T06:47:59.079Z,997.74
2017-11-28T06:48:24.546Z,997.79
2017-11-28T06:48:50.024Z,997.75
2017-11-28T06:49:15.501Z,997.69
2017-11-28T06:50:24.187Z,997.76
2017-11-28T06:50:49.708Z,997.76
2017-11-28T06:51:15.182Z,997.79
2017-11-28T06:51:40.640Z,997.73
2017-11-28T06:52:06.117Z,997.71
2017-11-28T06:52:31.588Z,997.72
2017-11-28T06:52:57.062Z,997.83
2017-11-28T06:53:22.560Z,997.76
2017-11-28T06:53:48.024Z,997.76
2017-11-28T06:54:13.514Z,997.8
2017-11-28T06:54:38.969Z,997.85
2017-11-28T06:55:04.456Z,997.85
2017-11-28T06:55:29.946Z,997.81
2017-11-28T06:55:55.415Z,997.9
2017-11-28T06:56:20.903Z,997.83
2017-11-28T06:56:46.392Z,997.81
2017-11-28T06:57:11.869Z,997.88
2017-11-28T06:57:37.382Z,997.87
2017-11-28T06:58:02.873Z,997.93
2017-11-28T06:58:28.378Z,997.88
2017-11-28T06:58:53.843Z,997.87
2017-11-28T06:59:19.292Z,997.87
2017-11-28T06:59:44.793Z,997.93
2017-11-28T07:00:10.265Z,997.85
2017-11-28T07:00:35.751Z,997.88
2017-11-28T07:01:39.379Z,997.84
2017-11-28T07:02:04.873Z,997.91
2017-11-28T07:02:30.364Z,997.84
2017-11-28T07:02:55.839Z,997.85
2017-11-28T07:04:14.757Z,997.88
2017-11-28T07:04:40.238Z,997.91
2017-11-28T07:05:05.718Z,997.89
2017-11-28T07:05:31.205Z,997.91
2017-11-28T07:05:56.684Z,997.92
2017-11-28T07:06:22.146Z,997.92
2017-11-28T07:06:47.684Z,997.9
2017-11-28T07:07:13.127Z,997.94
2017-11-28T07:07:38.610Z,997.88
2017-11-28T07:08:04.079Z,997.9
2017-11-28T07:08:29.579Z,997.88
2017-11-28T07:08:55.043Z,997.82
2017-11-28T07:09:20.521Z,997.9
2017-11-28T07:09:46.042Z,997.85
2017-11-28T07:10:11.518Z,997.89
2017-11-28T07:10:37.000Z,997.89
2017-11-28T07:11:02.485Z,997.86
2017-11-28T07:11:28.055Z,997.84
2017-11-28T07:11:53.514Z,997.91
2017-11-28T07:12:18.985Z,997.82
2017-11-28T07:12:44.470Z,997.88
2017-11-28T07:13:09.978Z,997.84
2017-11-28T07:13:35.454Z,997.82
2017-11-28T07:14:00.956Z,997.83
2017-11-28T07:14:26.407Z,997.83
2017-11-28T07:14:51.915Z,997.84
2017-11-28T07:15:17.408Z,997.85
2017-11-28T07:15:42.882Z,997.87
2017-11-28T07:16:08.363Z,997.87
2017-11-28T07:16:33.868Z,997.89
2017-11-28T07:16:59.333Z,997.87
2017-11-28T07:17:24.857Z,997.88
2017-11-28T07:17:50.419Z,997.93
2017-11-28T07:18:15.858Z,997.9
2017-11-28T07:18:41.357Z,997.9
2017-11-28T07:19:06.852Z,997.87
2017-11-28T07:19:32.358Z,997.88
2017-11-28T07:19:57.814Z,997.86
2017-11-28T07:20:23.297Z,997.88
2017-11-28T07:20:48.778Z,997.89
2017-11-28T07:21:14.383Z,997.87
2017-11-28T07:21:39.827Z,997.89
2017-11-28T07:22:05.284Z,997.82
2017-11-28T07:22:30.793Z,997.89
2017-11-28T07:22:56.231Z,997.8
2017-11-28T07:23:21.724Z,997.86
2017-11-28T07:23:47.212Z,997.8
2017-11-28T07:24:12.674Z,997.76
2017-11-28T07:24:38.174Z,997.78
2017-11-28T07:25:03.680Z,997.77
2017-11-28T07:25:29.170Z,997.77
2017-11-28T07:25:54.634Z,997.72
2017-11-28T07:26:20.139Z,997.77
2017-11-28T07:26:45.678Z,997.79
2017-11-28T07:27:11.170Z,997.79
2017-11-28T07:27:36.653Z,997.75
2017-11-28T07:28:02.135Z,997.75
2017-11-28T07:28:27.613Z,997.78
2017-11-28T07:28:53.092Z,997.72
2017-11-28T07:29:18.593Z,997.75
2017-11-28T07:29:44.049Z,997.76
2017-11-28T07:30:09.545Z,997.76
2017-11-28T07:30:35.036Z,997.85
2017-11-28T07:31:00.499Z,997.87
2017-11-28T07:31:26.027Z,997.79
2017-11-28T07:31:51.491Z,997.86
2017-11-28T07:32:16.997Z,997.77
2017-11-28T07:32:42.490Z,997.85
2017-11-28T07:33:07.967Z,997.88
2017-11-28T07:33:33.440Z,997.87
2017-11-28T07:33:58.922Z,997.89
2017-11-28T07:34:24.389Z,997.85
2017-11-28T07:34:49.899Z,997.84
2017-11-28T07:35:15.389Z,997.86
2017-11-28T07:35:40.863Z,997.93
2017-11-28T07:36:06.346Z,997.93
2017-11-28T07:36:31.822Z,997.91
2017-11-28T07:36:57.299Z,997.92
2017-11-28T07:37:22.768Z,997.88
2017-11-28T07:37:48.255Z,997.92
2017-11-28T07:38:13.787Z,997.91
2017-11-28T07:38:39.268Z,997.95
2017-11-28T07:39:04.715Z,997.91
2017-11-28T07:39:30.196Z,997.91
2017-11-28T07:39:55.646Z,997.95
2017-11-28T07:40:21.127Z,997.95
2017-11-28T07:40:46.603Z,997.92
2017-11-28T07:41:12.115Z,997.92
2017-11-28T07:41:37.615Z,997.9
2017-11-28T07:42:03.102Z,997.87
2017-11-28T07:42:28.558Z,997.91
2017-11-28T07:42:54.084Z,997.93
2017-11-28T07:43:19.549Z,997.99
2017-11-28T07:43:45.024Z,997.94
2017-11-28T07:44:10.512Z,998.01
2017-11-28T07:44:35.965Z,997.99
2017-11-28T07:45:01.458Z,997.97
2017-11-28T07:45:26.946Z,998.04
2017-11-28T07:45:52.453Z,998.01
2017-11-28T07:46:17.960Z,998
2017-11-28T07:46:43.444Z,997.97
2017-11-28T07:47:08.933Z,998.01
2017-11-28T07:47:34.434Z,998.01
2017-11-28T07:47:59.880Z,998.01
2017-11-28T07:48:25.390Z,998.04
2017-11-28T07:48:50.889Z,997.98
2017-11-28T07:49:16.366Z,998.01
2017-11-28T07:49:41.854Z,997.99
2017-11-28T07:50:07.368Z,998.04
2017-11-28T07:50:32.855Z,998.06
2017-11-28T07:50:58.297Z,998.04
2017-11-28T07:51:23.824Z,998.07
2017-11-28T07:51:49.311Z,998.04
2017-11-28T07:52:14.811Z,998.02
2017-11-28T07:52:40.313Z,998.02
2017-11-28T07:53:05.752Z,998
2017-11-28T07:53:31.256Z,998.07
2017-11-28T07:53:56.748Z,998.04
2017-11-28T07:54:22.214Z,998.09
2017-11-28T07:54:47.702Z,998.05
2017-11-28T07:55:13.171Z,998.07
2017-11-28T07:55:38.612Z,998.02
2017-11-28T07:56:04.092Z,998.08
2017-11-28T07:56:29.569Z,998.11
2017-11-28T07:56:55.071Z,998.12
2017-11-28T07:57:20.582Z,998.11
2017-11-28T07:57:46.073Z,998.1
2017-11-28T07:58:11.592Z,998.15
2017-11-28T07:58:37.029Z,998.17
2017-11-28T07:59:02.459Z,998.2
2017-11-28T07:59:27.955Z,998.15
2017-11-28T07:59:53.415Z,998.16
2017-11-28T08:00:18.921Z,998.18
2017-11-28T08:01:27.624Z,998.16
2017-11-28T08:01:53.111Z,998.14
2017-11-28T08:02:18.628Z,998.13
2017-11-28T08:02:44.113Z,998.14
2017-11-28T08:03:09.622Z,998.11
2017-11-28T08:03:35.116Z,998.15
2017-11-28T08:04:00.611Z,998.2
2017-11-28T08:04:26.137Z,998.22
2017-11-28T08:04:51.623Z,998.24
2017-11-28T08:05:17.103Z,998.2
2017-11-28T08:05:42.578Z,998.17
2017-11-28T08:06:08.071Z,998.25
2017-11-28T08:06:33.558Z,998.27
2017-11-28T08:06:59.012Z,998.2
2017-11-28T08:07:24.475Z,998.22
2017-11-28T08:07:49.993Z,998.27
2017-11-28T08:08:15.467Z,998.33
2017-11-28T08:08:41.010Z,998.34
2017-11-28T08:09:06.503Z,998.3
2017-11-28T08:09:31.995Z,998.24
2017-11-28T08:09:57.493Z,998.31
2017-11-28T08:10:22.986Z,998.25
2017-11-28T08:10:48.481Z,998.22
2017-11-28T08:11:13.955Z,998.21
2017-11-28T08:11:39.486Z,998.19
2017-11-28T08:12:04.984Z,998.19
2017-11-28T08:12:30.447Z,998.13
2017-11-28T08:12:55.924Z,998.19
2017-11-28T08:13:21.422Z,998.15
2017-11-28T08:13:46.913Z,998.19
2017-11-28T08:14:12.410Z,998.14
2017-11-28T08:14:37.870Z,998.15
2017-11-28T08:15:03.353Z,998.16
2017-11-28T08:15:28.828Z,998.12
2017-11-28T08:15:54.362Z,998.14
2017-11-28T08:16:19.851Z,998.15
2017-11-28T08:16:45.328Z,998.1
2017-11-28T08:17:10.846Z,998.14
2017-11-28T08:17:36.311Z,998.21
2017-11-28T08:18:01.798Z,998.15
2017-11-28T08:18:27.288Z,998.17
2017-11-28T08:18:52.781Z,998.16
2017-11-28T08:19:18.241Z,998.16
2017-11-28T08:19:43.732Z,998.21
2017-11-28T08:20:09.258Z,998.2
2017-11-28T08:20:34.723Z,998.21
2017-11-28T08:21:00.210Z,998.21
2017-11-28T08:21:25.686Z,998.19
2017-11-28T08:21:51.175Z,998.23
2017-11-28T08:22:16.663Z,998.22
2017-11-28T08:22:42.157Z,998.24
2017-11-28T08:23:07.646Z,998.22
2017-11-28T08:23:33.173Z,998.22
2017-11-28T08:23:58.666Z,998.2
2017-11-28T08:24:24.116Z,998.19
2017-11-28T08:24:49.604Z,998.23
2017-11-28T08:25:15.073Z,998.2
2017-11-28T08:25:40.557Z,998.23
2017-11-28T08:26:06.010Z,998.17
2017-11-28T08:26:31.503Z,998.17
2017-11-28T08:26:56.993Z,998.17
2017-11-28T08:27:22.497Z,998.15
2017-11-28T08:27:47.966Z,998.18
2017-11-28T08:28:13.507Z,998.19
2017-11-28T08:28:38.946Z,998.17
2017-11-28T08:29:04.427Z,998.22
2017-11-28T08:29:29.941Z,998.22
2017-11-28T08:29:55.416Z,998.19
2017-11-28T08:30:20.975Z,998.21
2017-11-28T08:30:46.441Z,998.2
2017-11-28T08:31:11.940Z,998.26
2017-11-28T08:31:37.400Z,998.24
2017-11-28T08:32:02.878Z,998.16
2017-11-28T08:32:28.386Z,998.17
2017-11-28T08:32:53.853Z,998.17
2017-11-28T08:33:19.399Z,998.29
2017-11-28T08:33:44.882Z,998.23
2017-11-28T08:34:10.350Z,998.26
2017-11-28T08:34:35.800Z,998.24
2017-11-28T08:35:01.270Z,998.27
2017-11-28T08:35:26.739Z,998.25
2017-11-28T08:35:52.197Z,998.24
2017-11-28T08:36:17.709Z,998.32
2017-11-28T08:36:43.199Z,998.34
2017-11-28T08:37:08.712Z,998.3
2017-11-28T08:37:34.215Z,998.27
2017-11-28T08:37:59.711Z,998.26
2017-11-28T08:38:25.190Z,998.29
2017-11-28T08:38:50.663Z,998.26
2017-11-28T08:39:16.171Z,998.27
2017-11-28T08:39:41.615Z,998.28
2017-11-28T08:40:07.124Z,998.32
2017-11-28T08:40:32.613Z,998.24
2017-11-28T08:40:58.068Z,998.26
2017-11-28T08:41:23.554Z,998.27
2017-11-28T08:41:49.049Z,998.24
2017-11-28T08:42:14.721Z,998.29
2017-11-28T08:42:40.159Z,998.25
2017-11-28T08:43:05.645Z,998.28
2017-11-28T08:43:31.158Z,998.25
2017-11-28T08:43:56.730Z,998.34
2017-11-28T08:44:22.248Z,998.31
2017-11-28T08:44:47.761Z,998.33
2017-11-28T08:45:13.242Z,998.37
2017-11-28T08:45:38.719Z,998.29
2017-11-28T08:46:04.199Z,998.34
2017-11-28T08:46:29.695Z,998.28
2017-11-28T08:46:55.155Z,998.31
2017-11-28T08:47:20.637Z,998.31
2017-11-28T08:47:46.109Z,998.28
2017-11-28T08:48:11.589Z,998.29
2017-11-28T08:48:37.067Z,998.26
2017-11-28T08:49:02.552Z,998.28
2017-11-28T08:49:28.030Z,998.33
2017-11-28T08:49:53.508Z,998.29
2017-11-28T08:50:18.971Z,998.33
2017-11-28T08:50:44.459Z,998.29
2017-11-28T08:51:09.933Z,998.31
2017-11-28T08:51:35.423Z,998.33
2017-11-28T08:52:00.858Z,998.33
2017-11-28T08:52:26.354Z,998.33
2017-11-28T08:52:51.834Z,998.29
2017-11-28T08:53:17.330Z,998.34
2017-11-28T08:53:42.872Z,998.33
2017-11-28T08:54:08.288Z,998.38
2017-11-28T08:54:33.840Z,998.29
2017-11-28T08:54:59.272Z,998.32
2017-11-28T08:55:24.771Z,998.32
2017-11-28T08:55:50.284Z,998.31
2017-11-28T08:56:15.705Z,998.32
2017-11-28T08:56:41.200Z,998.33
2017-11-28T08:57:06.682Z,998.35
2017-11-28T08:57:32.132Z,998.33
2017-11-28T08:57:57.635Z,998.31
2017-11-28T08:58:23.114Z,998.38
2017-11-28T08:58:48.591Z,998.31
2017-11-28T08:59:14.111Z,998.34
2017-11-28T08:59:39.617Z,998.21
2017-11-28T09:00:05.102Z,998.34
2017-11-28T09:00:30.532Z,998.29
2017-11-28T09:00:56.021Z,998.32
2017-11-28T09:01:21.513Z,998.32
2017-11-28T09:01:47.045Z,998.25
2017-11-28T09:02:12.520Z,998.29
2017-11-28T09:02:37.982Z,998.32
2017-11-28T09:03:03.476Z,998.29
2017-11-28T09:03:29.034Z,998.34
2017-11-28T09:03:54.521Z,998.37
2017-11-28T09:04:19.998Z,998.37
2017-11-28T09:04:45.504Z,998.37
2017-11-28T09:05:10.950Z,998.39
2017-11-28T09:05:36.485Z,998.42
2017-11-28T09:06:01.944Z,998.42
2017-11-28T09:06:27.363Z,998.43
2017-11-28T09:06:52.864Z,998.42
2017-11-28T09:07:18.330Z,998.46
2017-11-28T09:07:43.858Z,998.43
2017-11-28T09:08:09.329Z,998.46
2017-11-28T09:08:34.801Z,998.41
2017-11-28T09:09:00.309Z,998.39
2017-11-28T09:09:25.849Z,998.42
2017-11-28T09:09:51.302Z,998.44
2017-11-28T09:10:16.770Z,998.48
2017-11-28T09:10:42.334Z,998.44
2017-11-28T09:11:07.795Z,998.43
2017-11-28T09:11:33.324Z,998.47
2017-11-28T09:11:58.755Z,998.43
2017-11-28T09:12:24.184Z,998.44
2017-11-28T09:12:49.683Z,998.44
2017-11-28T09:13:15.194Z,998.46
2017-11-28T09:13:40.671Z,998.45
2017-11-28T09:14:06.230Z,998.39
2017-11-28T09:14:31.711Z,998.42
2017-11-28T09:14:57.177Z,998.39
2017-11-28T09:15:22.699Z,998.41
2017-11-28T09:15:48.135Z,998.38
2017-11-28T09:16:13.651Z,998.4
2017-11-28T09:16:39.132Z,998.33
2017-11-28T09:17:04.637Z,998.39
2017-11-28T09:17:30.148Z,998.44
2017-11-28T09:17:55.690Z,998.38
2017-11-28T09:18:21.218Z,998.38
2017-11-28T09:18:46.675Z,998.43
2017-11-28T09:19:12.164Z,998.41
2017-11-28T09:19:37.660Z,998.42
2017-11-28T09:20:03.131Z,998.41
2017-11-28T09:20:28.708Z,998.42
2017-11-28T09:20:54.113Z,998.42
2017-11-28T09:21:19.597Z,998.43
2017-11-28T09:21:45.080Z,998.41
2017-11-28T09:22:10.678Z,998.42
2017-11-28T09:22:36.128Z,998.41
2017-11-28T09:23:01.673Z,998.43
2017-11-28T09:23:27.100Z,998.42
2017-11-28T09:23:52.544Z,998.39
2017-11-28T09:24:18.016Z,998.42
2017-11-28T09:24:43.500Z,998.38
2017-11-28T09:25:08.986Z,998.37
2017-11-28T09:25:34.480Z,998.42
2017-11-28T09:25:59.944Z,998.37
2017-11-28T09:26:25.406Z,998.34
2017-11-28T09:26:50.927Z,998.39
2017-11-28T09:27:16.421Z,998.38
2017-11-28T09:27:41.945Z,998.39
2017-11-28T09:28:07.419Z,998.35
2017-11-28T09:28:32.927Z,998.41
2017-11-28T09:28:58.370Z,998.32
2017-11-28T09:29:23.889Z,998.39
2017-11-28T09:29:49.366Z,998.4
2017-11-28T09:30:14.825Z,998.36
2017-11-28T09:30:40.341Z,998.37
2017-11-28T09:31:05.838Z,998.41
2017-11-28T09:31:31.313Z,998.35
2017-11-28T09:31:56.815Z,998.39
2017-11-28T09:32:22.293Z,998.36
2017-11-28T09:32:47.763Z,998.43
2017-11-28T09:33:13.233Z,998.41
2017-11-28T09:33:38.717Z,998.42
2017-11-28T09:34:04.185Z,998.41
2017-11-28T09:34:29.667Z,998.44
2017-11-28T09:34:55.146Z,998.46
2017-11-28T09:35:20.665Z,998.42
2017-11-28T09:35:46.069Z,998.42
2017-11-28T09:36:11.575Z,998.46
2017-11-28T09:36:37.077Z,998.48
2017-11-28T09:37:02.581Z,998.5
2017-11-28T09:37:28.071Z,998.47
2017-11-28T09:37:53.498Z,998.46
2017-11-28T09:38:18.949Z,998.42
2017-11-28T09:38:44.448Z,998.45
2017-11-28T09:39:09.917Z,998.43
2017-11-28T09:39:35.428Z,998.43
2017-11-28T09:40:00.912Z,998.46
2017-11-28T09:40:26.395Z,998.41
2017-11-28T09:40:52.017Z,998.41
2017-11-28T09:41:17.535Z,998.43
2017-11-28T09:41:42.988Z,998.47
2017-11-28T09:42:08.532Z,998.47
2017-11-28T09:42:33.918Z,998.38
2017-11-28T09:42:59.451Z,998.44
2017-11-28T09:43:25.010Z,998.42
2017-11-28T09:43:50.485Z,998.45
2017-11-28T09:44:15.892Z,998.48
2017-11-28T09:44:41.380Z,998.4
2017-11-28T09:45:06.911Z,998.41
2017-11-28T09:45:32.378Z,998.51
2017-11-28T09:45:57.874Z,998.39
2017-11-28T09:46:23.383Z,998.46
2017-11-28T09:46:48.868Z,998.44
2017-11-28T09:47:14.367Z,998.38
2017-11-28T09:47:39.848Z,998.44
2017-11-28T09:48:05.295Z,998.43
2017-11-28T09:48:30.788Z,998.42
2017-11-28T09:48:56.257Z,998.42
2017-11-28T09:49:21.779Z,998.47
2017-11-28T09:49:47.200Z,998.43
2017-11-28T09:50:12.703Z,998.47
2017-11-28T09:50:38.183Z,998.47
2017-11-28T09:51:03.711Z,998.43
2017-11-28T09:51:29.169Z,998.45
2017-11-28T09:51:54.670Z,998.48
2017-11-28T09:52:20.172Z,998.45
2017-11-28T09:52:45.655Z,998.44
2017-11-28T09:53:11.106Z,998.43
2017-11-28T09:53:36.644Z,998.4
2017-11-28T09:54:02.111Z,998.45
2017-11-28T09:54:27.603Z,998.46
2017-11-28T09:54:53.674Z,998.44
2017-11-28T09:55:18.855Z,998.45
2017-11-28T09:55:44.303Z,998.43
2017-11-28T09:56:09.821Z,998.47
2017-11-28T09:56:35.295Z,998.46
2017-11-28T09:57:00.747Z,998.4
2017-11-28T09:57:26.217Z,998.43
2017-11-28T09:57:51.743Z,998.48
2017-11-28T09:58:17.210Z,998.46
2017-11-28T09:58:42.653Z,998.37
2017-11-28T09:59:08.111Z,998.4
2017-11-28T09:59:33.573Z,998.37
2017-11-28T09:59:59.065Z,998.43
2017-11-28T10:00:24.566Z,998.36
2017-11-28T10:00:50.070Z,998.41
2017-11-28T10:01:15.556Z,998.36
2017-11-28T10:01:41.061Z,998.39
2017-11-28T10:02:06.561Z,998.39
2017-11-28T10:02:32.014Z,998.39
2017-11-28T10:02:57.559Z,998.44
2017-11-28T10:03:22.969Z,998.36
2017-11-28T10:03:48.457Z,998.33
2017-11-28T10:04:14.014Z,998.34
2017-11-28T10:04:39.484Z,998.39
2017-11-28T10:05:04.951Z,998.34
2017-11-28T10:05:30.454Z,998.39
2017-11-28T10:05:55.944Z,998.39
2017-11-28T10:06:21.384Z,998.36
2017-11-28T10:06:46.874Z,998.39
2017-11-28T10:07:12.395Z,998.41
2017-11-28T10:07:37.890Z,998.36
2017-11-28T10:08:03.389Z,998.41
2017-11-28T10:08:28.929Z,998.34
2017-11-28T10:08:54.412Z,998.4
2017-11-28T10:09:19.909Z,998.37
2017-11-28T10:09:45.407Z,998.39
2017-11-28T10:10:10.875Z,998.41
2017-11-28T10:10:36.371Z,998.34
2017-11-28T10:11:01.850Z,998.37
2017-11-28T10:11:27.353Z,998.35
2017-11-28T10:11:52.849Z,998.35
2017-11-28T10:12:18.346Z,998.35
2017-11-28T10:12:43.830Z,998.35
2017-11-28T10:13:09.308Z,998.35
2017-11-28T10:13:34.837Z,998.35
2017-11-28T10:14:00.245Z,998.37
2017-11-28T10:14:25.739Z,998.33
2017-11-28T10:14:51.202Z,998.36
2017-11-28T10:15:16.679Z,998.32
2017-11-28T10:15:42.203Z,998.31
2017-11-28T10:16:07.673Z,998.42
2017-11-28T10:16:33.169Z,998.35
2017-11-28T10:16:58.626Z,998.34
2017-11-28T10:17:24.161Z,998.37
2017-11-28T10:17:49.614Z,998.32
2017-11-28T10:18:15.099Z,998.31
2017-11-28T10:18:40.600Z,998.32
2017-11-28T10:19:06.114Z,998.32
2017-11-28T10:19:31.539Z,998.39
2017-11-28T10:19:57.047Z,998.34
2017-11-28T10:20:22.538Z,998.32
2017-11-28T10:20:48.047Z,998.36
2017-11-28T10:21:13.503Z,998.28
2017-11-28T10:21:38.979Z,998.32
2017-11-28T10:22:04.482Z,998.26
2017-11-28T10:22:30.022Z,998.28
2017-11-28T10:22:55.483Z,998.3
2017-11-28T10:23:20.985Z,998.32
2017-11-28T10:23:46.474Z,998.28
2017-11-28T10:24:12.028Z,998.3
2017-11-28T10:24:37.478Z,998.33
2017-11-28T10:25:02.953Z,998.31